Zapata, Texas
Current Conditions -  °F | °C
As of 8:40 AM on Thursday 30 Oct 2014 (Local Time) from MMNL Reporting Station
Clear Clear  
Wind Chill: 70°   Ceiling: Unl
Heat Index: 70°   Visibility: 8mi
Dew Point: 64°   Wind: 0mph
Humidity: 83%   Direction: NA
Pressure: 30.09"   Gusts: NA
Location:  26.91°N, 99.27°W
Report Text: MMNL 301340Z 00000KT 8SM SKC 21/18 A3009
Loading
Personal Weather Stations






























Interactive Weather Map
Tropical Storm Tracking
New forecast layout! Learn more

10-Day Weather Forecast

Advertisements
Track Severe Weather on mobile